Hovedside
METAR-TAF:

METAR-TAF

Lufthavner :

Asunción, Paraguay

breddegrad: 25-16S, lengdegrad: 057-38W, høyde over havet: 101 m

Gjeldene værobservasjon

Denne rapporten ble laget for 14 minutter siden, klokken 01:00 UTC
Vind 6 kt fra Sør
Temperatur 26°C
Luftfuktighet 39%
Trykk 1008 hPa
Sikt 10 km eller mer
ingen skyer under 1500 m og ingen bygeskyer

METAR: SGAS 170100Z 18006KT CAVOK 26/11 Q1008

Tid: 22:14 (01:14 UTC)

Varsel

Denne rapporten ble laget for 3 timer og 59 minutter siden, klokken 21:15 UTC
Varsel gyldig fra 17. klokken 00 UTC til 18. klokken 00 UTC
Vind 8 kt fra Sør-sørøst
Sikt 10 km eller mer
ingen skyer under 1500 m og ingen bygeskyer
Blir
fra 17. klokken 12 UTC til 17. klokken 15 UTC
Vind 6 kt fra Øst

TAF: SGAS 162115Z 1700/1800 16008KT CAVOK TX34/1718Z TN17/1709Z BECMG 1712/1715 10006KT

Værobservasjoner og værvarsel for over 4000 flyplasser (METAR- og TAF-rapporter).

Tilgjengelige stasjoner er representert av de røde og gule prikkene på kartet.

Hold musepekeren over prikken for å se navnet på stasjonen.

Klikk så for å se værobservasjoner og -varsler.

For å forandre kartet kan du klikke på den grønne knappen med svart kryss for å zoome inn, på den grønne knappen med strek for å zoome ut, eller på de grønne pilene for å se tilstøtende kart.


METAR-TAF: